createdAt,value
2018-06-04T00:00:48.708Z,17.87
2018-06-04T00:01:48.735Z,17.89
2018-06-04T00:02:48.691Z,17.81
2018-06-04T00:03:48.467Z,17.84
2018-06-04T00:04:48.711Z,17.82
2018-06-04T00:05:48.717Z,17.92
2018-06-04T00:06:48.422Z,17.87
2018-06-04T00:07:48.682Z,17.75
2018-06-04T00:08:48.676Z,17.86
2018-06-04T00:09:48.701Z,17.89
2018-06-04T00:10:48.689Z,17.81
2018-06-04T00:11:48.654Z,17.86
2018-06-04T00:12:48.674Z,17.86
2018-06-04T00:13:48.390Z,17.89
2018-06-04T00:14:48.416Z,17.79
2018-06-04T00:15:48.660Z,17.74
2018-06-04T00:16:48.669Z,17.74
2018-06-04T00:17:48.634Z,17.77
2018-06-04T00:18:48.656Z,17.81
2018-06-04T00:19:48.679Z,17.84
2018-06-04T00:20:48.635Z,17.82
2018-06-04T00:21:48.371Z,17.86
2018-06-04T00:22:48.647Z,17.81
2018-06-04T00:23:48.359Z,17.78
2018-06-04T00:24:48.622Z,17.77
2018-06-04T00:25:48.631Z,17.82
2018-06-04T00:26:48.629Z,17.82
2018-06-04T00:27:48.593Z,17.78
2018-06-04T00:28:48.608Z,17.78
2018-06-04T00:29:48.592Z,17.82
2018-06-04T00:30:48.614Z,17.75
2018-06-04T00:31:48.581Z,17.87
2018-06-04T00:32:48.611Z,17.77
2018-06-04T00:33:48.578Z,17.81
2018-06-04T00:34:48.599Z,17.81
2018-06-04T00:35:48.562Z,17.74
2018-06-04T00:36:48.579Z,17.72
2018-06-04T00:37:48.553Z,17.84
2018-06-04T00:38:48.581Z,17.78
2018-06-04T00:39:48.587Z,17.87
2018-06-04T00:40:48.561Z,17.84
2018-06-04T00:41:48.535Z,17.9
2018-06-04T00:42:48.533Z,17.9
2018-06-04T00:43:48.566Z,17.9
2018-06-04T00:44:48.543Z,17.92
2018-06-04T00:45:48.562Z,17.86
2018-06-04T00:46:48.518Z,17.97
2018-06-04T00:47:48.548Z,17.9
2018-06-04T00:48:48.555Z,17.99
2018-06-04T00:49:48.256Z,18.03
2018-06-04T00:50:48.537Z,18.12
2018-06-04T00:51:48.498Z,18.11
2018-06-04T00:52:48.516Z,18.12
2018-06-04T00:53:48.495Z,18.12
2018-06-04T00:54:48.518Z,18.15
2018-06-04T00:55:48.514Z,18.21
2018-06-04T00:56:48.517Z,18.29
2018-06-04T00:57:48.221Z,18.3
2018-06-04T00:58:48.220Z,18.29
2018-06-04T00:59:48.494Z,18.3
2018-06-04T01:00:48.484Z,18.33
2018-06-04T01:01:48.498Z,18.41
2018-06-04T01:02:48.462Z,18.42
2018-06-04T01:03:48.480Z,18.47
2018-06-04T01:04:48.451Z,18.51
2018-06-04T01:05:48.226Z,18.47
2018-06-04T01:06:48.478Z,18.58
2018-06-04T01:07:48.481Z,18.55
2018-06-04T01:08:48.203Z,18.58
2018-06-04T01:09:48.475Z,18.65
2018-06-04T01:10:48.187Z,18.67
2018-06-04T01:11:48.181Z,18.67
2018-06-04T01:12:48.435Z,18.72
2018-06-04T01:13:48.460Z,18.69
2018-06-04T01:14:48.161Z,18.8
2018-06-04T01:15:48.446Z,18.81
2018-06-04T01:16:48.453Z,18.81
2018-06-04T01:17:48.443Z,18.8
2018-06-04T01:18:48.439Z,18.78
2018-06-04T01:19:48.427Z,18.8
2018-06-04T01:20:48.415Z,18.91
2018-06-04T01:21:48.436Z,18.92
2018-06-04T01:22:48.393Z,18.94
2018-06-04T01:23:48.166Z,18.99
2018-06-04T01:24:48.151Z,19.06
2018-06-04T01:25:48.165Z,19
2018-06-04T01:26:48.132Z,19.06
2018-06-04T01:27:48.377Z,19.04
2018-06-04T01:28:48.382Z,19.07
2018-06-04T01:29:48.402Z,19.13
2018-06-04T01:30:48.395Z,19.18
2018-06-04T01:31:48.363Z,19.14
2018-06-04T01:32:48.371Z,19.28
2018-06-04T01:33:48.349Z,19.25
2018-06-04T01:34:48.385Z,19.36
2018-06-04T01:35:48.365Z,19.32
2018-06-04T01:36:48.379Z,19.32
2018-06-04T01:37:48.085Z,19.39
2018-06-04T01:38:48.116Z,19.32
2018-06-04T01:39:48.337Z,19.36
2018-06-04T01:40:48.363Z,19.32
2018-06-04T01:41:48.389Z,19.4
2018-06-04T01:42:48.324Z,19.44
2018-06-04T01:43:48.327Z,19.46
2018-06-04T01:44:48.078Z,19.48
2018-06-04T01:45:48.353Z,19.51
2018-06-04T01:46:48.350Z,19.5
2018-06-04T01:47:48.312Z,19.5
2018-06-04T01:48:48.317Z,19.55
2018-06-04T01:49:48.049Z,19.5
2018-06-04T01:50:48.331Z,19.48
2018-06-04T01:51:48.313Z,19.54
2018-06-04T01:52:48.336Z,19.59
2018-06-04T01:53:48.305Z,19.56
2018-06-04T01:54:48.329Z,19.5
2018-06-04T01:55:48.284Z,19.56
2018-06-04T01:56:48.301Z,19.44
2018-06-04T01:57:48.288Z,19.46
2018-06-04T01:58:48.052Z,19.5
2018-06-04T01:59:48.304Z,19.5
2018-06-04T02:00:48.301Z,19.43
2018-06-04T02:01:48.024Z,19.48
2018-06-04T02:02:48.265Z,19.46
2018-06-04T02:03:48.291Z,19.41
2018-06-04T02:04:48.277Z,19.36
2018-06-04T02:05:48.254Z,19.32
2018-06-04T02:06:48.288Z,19.4
2018-06-04T02:07:48.000Z,19.29
2018-06-04T02:08:48.280Z,19.29
2018-06-04T02:09:48.245Z,19.21
2018-06-04T02:10:48.272Z,19.16
2018-06-04T02:11:48.245Z,19.08
2018-06-04T02:12:48.254Z,19.02
2018-06-04T02:13:48.232Z,19.04
2018-06-04T02:14:48.262Z,18.99
2018-06-04T02:15:48.252Z,18.99
2018-06-04T02:16:48.244Z,18.99
2018-06-04T02:17:48.219Z,18.94
2018-06-04T02:18:48.221Z,18.94
2018-06-04T02:19:48.240Z,18.78
2018-06-04T02:20:48.234Z,18.88
2018-06-04T02:21:48.244Z,18.87
2018-06-04T02:22:47.949Z,18.78
2018-06-04T02:23:48.234Z,18.76
2018-06-04T02:24:47.963Z,18.76
2018-06-04T02:25:48.240Z,18.66
2018-06-04T02:26:48.188Z,18.63
2018-06-04T02:27:48.219Z,18.62
2018-06-04T02:28:48.199Z,18.62
2018-06-04T02:29:48.213Z,18.57
2018-06-04T02:30:48.178Z,18.55
2018-06-04T02:31:48.204Z,18.54
2018-06-04T02:32:47.937Z,18.48
2018-06-04T02:33:48.179Z,18.54
2018-06-04T02:34:47.667Z,18.57
2018-06-04T02:35:47.937Z,18.48
2018-06-04T02:36:47.928Z,18.51
2018-06-04T02:37:48.190Z,18.41
2018-06-04T02:38:48.154Z,18.45
2018-06-04T02:39:47.922Z,18.42
2018-06-04T02:40:47.893Z,18.41
2018-06-04T02:41:48.176Z,18.47
2018-06-04T02:42:48.141Z,18.39
2018-06-04T02:43:48.184Z,18.37
2018-06-04T02:44:47.897Z,18.32
2018-06-04T02:45:48.132Z,18.42
2018-06-04T02:46:48.209Z,18.27
2018-06-04T02:47:48.158Z,18.3
2018-06-04T02:48:47.880Z,18.37
2018-06-04T02:49:48.147Z,18.3
2018-06-04T02:50:48.114Z,18.2
2018-06-04T02:51:48.140Z,18.27
2018-06-04T02:52:48.133Z,18.26
2018-06-04T02:53:47.884Z,18.29
2018-06-04T02:54:48.095Z,18.21
2018-06-04T02:55:48.129Z,18.21
2018-06-04T02:56:48.110Z,18.23
2018-06-04T02:57:48.100Z,18.2
2018-06-04T02:58:48.130Z,18.2
2018-06-04T02:59:48.090Z,18.14
2018-06-04T03:00:48.099Z,18.15
2018-06-04T03:01:48.072Z,18.11
2018-06-04T03:02:48.109Z,18.12
2018-06-04T03:03:48.095Z,18.11
2018-06-04T03:04:48.097Z,18.15
2018-06-04T03:05:48.063Z,18.11
2018-06-04T03:06:48.058Z,18.12
2018-06-04T03:07:48.085Z,18.14
2018-06-04T03:08:47.813Z,18.14
2018-06-04T03:09:48.076Z,18.1
2018-06-04T03:10:48.038Z,18.08
2018-06-04T03:11:48.075Z,18.12
2018-06-04T03:12:48.046Z,18.1
2018-06-04T03:13:48.068Z,18.14
2018-06-04T03:14:48.033Z,18.14
2018-06-04T03:15:47.797Z,18.17
2018-06-04T03:16:48.029Z,18.26
2018-06-04T03:17:48.056Z,18.23
2018-06-04T03:18:48.008Z,18.23
2018-06-04T03:19:48.022Z,18.27
2018-06-04T03:20:48.016Z,18.32
2018-06-04T03:21:47.773Z,18.32
2018-06-04T03:22:47.992Z,18.29
2018-06-04T03:23:48.022Z,18.36
2018-06-04T03:24:47.765Z,18.41
2018-06-04T03:25:48.016Z,18.51
2018-06-04T03:26:47.986Z,18.5
2018-06-04T03:27:48.006Z,18.52
2018-06-04T03:28:47.719Z,18.52
2018-06-04T03:29:48.002Z,18.54
2018-06-04T03:30:47.967Z,18.63
2018-06-04T03:31:48.012Z,18.73
2018-06-04T03:32:47.985Z,18.84
2018-06-04T03:33:47.996Z,18.73
2018-06-04T03:34:47.473Z,18.85
2018-06-04T03:35:47.705Z,18.81
2018-06-04T03:36:47.701Z,18.94
2018-06-04T03:37:47.981Z,18.94
2018-06-04T03:38:47.973Z,19.04
2018-06-04T03:39:47.944Z,19.02
2018-06-04T03:40:47.951Z,19.13
2018-06-04T03:41:47.941Z,19.26
2018-06-04T03:42:47.961Z,19.32
2018-06-04T03:43:47.931Z,19.39
2018-06-04T03:44:47.953Z,19.59
2018-06-04T03:45:47.923Z,19.71
2018-06-04T03:46:47.694Z,19.84
2018-06-04T03:47:47.668Z,19.88
2018-06-04T03:48:47.414Z,20.11
2018-06-04T03:49:47.902Z,20.28
2018-06-04T03:50:47.642Z,20.33
2018-06-04T03:51:47.389Z,20.5
2018-06-04T03:52:47.641Z,20.59
2018-06-04T03:53:47.886Z,20.72
2018-06-04T03:54:47.880Z,21.01
2018-06-04T03:55:47.880Z,21.07
2018-06-04T03:56:47.884Z,21.22
2018-06-04T03:57:47.876Z,21.31
2018-06-04T03:58:47.876Z,21.59
2018-06-04T03:59:47.869Z,21.72
2018-06-04T04:00:47.876Z,21.79
2018-06-04T04:01:47.644Z,21.98
2018-06-04T04:02:47.902Z,22.2
2018-06-04T04:03:47.866Z,22.36
2018-06-04T04:04:47.869Z,22.51
2018-06-04T04:05:47.872Z,22.68
2018-06-04T04:06:47.873Z,22.85
2018-06-04T04:07:47.872Z,23.01
2018-06-04T04:08:47.865Z,23.25
2018-06-04T04:09:47.867Z,23.47
2018-06-04T04:10:47.865Z,23.63
2018-06-04T04:11:47.865Z,23.8
2018-06-04T04:12:47.868Z,24.09
2018-06-04T04:13:47.865Z,24.32
2018-06-04T04:14:47.612Z,24.49
2018-06-04T04:15:47.872Z,24.67
2018-06-04T04:16:47.365Z,24.85
2018-06-04T04:17:47.866Z,24.99
2018-06-04T04:18:47.616Z,25.13
2018-06-04T04:19:47.871Z,25.3
2018-06-04T04:20:47.623Z,25.46
2018-06-04T04:21:47.625Z,25.65
2018-06-04T04:22:47.926Z,25.88
2018-06-04T04:23:47.924Z,26.02
2018-06-04T04:24:47.912Z,26.15
2018-06-04T04:25:47.896Z,26.36
2018-06-04T04:26:47.647Z,26.54
2018-06-04T04:27:47.846Z,26.69
2018-06-04T04:28:47.976Z,26.88
2018-06-04T04:29:47.941Z,27.02
2018-06-04T04:30:47.913Z,27.28
2018-06-04T04:31:47.949Z,27.47
2018-06-04T04:32:47.925Z,27.74
2018-06-04T04:33:47.958Z,27.92
2018-06-04T04:34:47.929Z,28.11
2018-06-04T04:35:47.711Z,28.22
2018-06-04T04:36:47.947Z,28.39
2018-06-04T04:37:48.076Z,28.66
2018-06-04T04:38:47.933Z,28.77
2018-06-04T04:39:47.942Z,28.96
2018-06-04T04:40:47.957Z,29.14
2018-06-04T04:41:47.960Z,29.34
2018-06-04T04:42:47.960Z,29.53
2018-06-04T04:43:47.963Z,29.7
2018-06-04T04:44:47.719Z,29.94
2018-06-04T04:45:47.723Z,30.08
2018-06-04T04:46:48.160Z,30.24
2018-06-04T04:47:48.038Z,30.38
2018-06-04T04:48:48.060Z,30.61
2018-06-04T04:49:48.053Z,30.76
2018-06-04T04:50:48.027Z,30.86
2018-06-04T04:51:47.811Z,31.01
2018-06-04T04:53:00.781Z,31.16
2018-06-04T04:53:48.080Z,31.2
2018-06-04T04:54:48.052Z,31.21
2018-06-04T04:55:48.064Z,31.41
2018-06-04T04:56:48.080Z,31.5
2018-06-04T04:57:48.112Z,31.65
2018-06-04T04:58:48.115Z,31.76
2018-06-04T04:59:48.288Z,31.8
2018-06-04T05:00:48.113Z,32.03
2018-06-04T05:01:48.118Z,32.06
2018-06-04T05:02:48.161Z,32.14
2018-06-04T05:03:48.124Z,32.44
2018-06-04T05:04:48.144Z,32.55
2018-06-04T05:05:48.174Z,32.7
2018-06-04T05:06:47.896Z,32.81
2018-06-04T05:07:48.196Z,32.94
2018-06-04T05:08:47.921Z,33.09
2018-06-04T05:09:48.206Z,33.15
2018-06-04T05:10:47.678Z,33.38
2018-06-04T05:11:47.945Z,33.5
2018-06-04T05:12:48.214Z,33.65
2018-06-04T05:13:48.248Z,33.81
2018-06-04T05:14:47.999Z,33.81
2018-06-04T05:15:48.233Z,33.9
2018-06-04T05:16:48.254Z,33.98
2018-06-04T05:17:48.251Z,34.03
2018-06-04T05:18:48.124Z,34.1
2018-06-04T05:19:48.502Z,34.22
2018-06-04T05:20:48.097Z,34.32
2018-06-04T05:21:48.355Z,34.44
2018-06-04T05:22:48.374Z,34.56
2018-06-04T05:24:02.983Z,34.65
2018-06-04T05:24:48.073Z,34.7
2018-06-04T05:25:48.349Z,34.78
2018-06-04T05:26:48.372Z,34.75
2018-06-04T05:27:48.390Z,34.75
2018-06-04T05:28:48.368Z,34.8
2018-06-04T05:29:48.133Z,34.91
2018-06-04T05:30:48.422Z,34.89
2018-06-04T05:31:48.549Z,35.07
2018-06-04T05:32:48.432Z,35.22
2018-06-04T05:33:48.159Z,35.29
2018-06-04T05:34:48.459Z,35.48
2018-06-04T05:35:48.438Z,35.48
2018-06-04T05:36:48.476Z,35.62
2018-06-04T05:37:48.213Z,35.68
2018-06-04T05:38:48.504Z,35.78
2018-06-04T05:39:48.233Z,35.93
2018-06-04T05:40:47.988Z,35.96
2018-06-04T05:41:48.512Z,35.99
2018-06-04T05:42:48.546Z,35.97
2018-06-04T05:43:48.555Z,36.13
2018-06-04T05:44:48.543Z,36.22
2018-06-04T05:45:48.558Z,36.31
2018-06-04T05:46:48.558Z,36.32
2018-06-04T05:47:48.608Z,36.29
2018-06-04T05:48:48.586Z,36.46
2018-06-04T05:49:48.623Z,36.43
2018-06-04T05:50:48.350Z,36.5
2018-06-04T05:51:48.648Z,36.6
2018-06-04T05:52:48.648Z,36.66
2018-06-04T05:53:48.710Z,36.8
2018-06-04T05:54:48.651Z,36.94
2018-06-04T05:55:48.694Z,36.93
2018-06-04T05:56:48.682Z,36.91
2018-06-04T05:57:48.707Z,36.9
2018-06-04T05:58:48.732Z,37.15
2018-06-04T05:59:48.757Z,37.24
2018-06-04T06:00:48.738Z,37.32
2018-06-04T06:01:48.915Z,37.37
2018-06-04T06:03:48.773Z,37.76
2018-06-04T06:04:48.790Z,37.89
2018-06-04T06:05:48.827Z,38.15
2018-06-04T06:06:48.580Z,38.32
2018-06-04T06:07:48.593Z,38.4
2018-06-04T06:08:48.857Z,38.68
2018-06-04T06:09:48.878Z,38.76
2018-06-04T06:10:48.868Z,38.88
2018-06-04T06:11:51.826Z,39.03
2018-06-04T06:13:48.897Z,39.13
2018-06-04T06:15:07.865Z,39.07
2018-06-04T06:15:48.944Z,39.07
2018-06-04T06:16:50.232Z,39.07
2018-06-04T06:18:48.999Z,38.86
2018-06-04T06:19:49.025Z,38.66
2018-06-04T06:20:48.764Z,38.53
2018-06-04T06:22:01.737Z,38.42
2018-06-04T06:22:49.053Z,38.31
2018-06-04T06:23:49.038Z,38.22
2018-06-04T06:24:49.077Z,38.06
2018-06-04T06:25:48.825Z,37.98
2018-06-04T06:26:49.079Z,37.84
2018-06-04T06:27:49.128Z,37.7
2018-06-04T06:28:49.131Z,37.5
2018-06-04T06:29:49.136Z,37.44
2018-06-04T06:30:49.254Z,37.36
2018-06-04T06:31:49.136Z,37.32
2018-06-04T06:32:48.921Z,37.31
2018-06-04T06:33:48.927Z,37.28
2018-06-04T06:34:48.952Z,37.41
2018-06-04T06:35:49.184Z,37.4
2018-06-04T06:36:48.978Z,37.49
2018-06-04T06:37:49.213Z,37.43
2018-06-04T06:38:49.259Z,37.43
2018-06-04T06:39:48.987Z,37.43
2018-06-04T06:40:49.046Z,37.49
2018-06-04T06:41:49.290Z,37.39
2018-06-04T06:42:49.324Z,37.47
2018-06-04T06:43:49.293Z,37.47
2018-06-04T06:44:49.313Z,37.56
2018-06-04T06:45:49.073Z,37.57
2018-06-04T06:46:49.412Z,37.72
2018-06-04T06:47:49.382Z,37.81
2018-06-04T06:48:49.376Z,37.85
2018-06-04T06:49:49.135Z,37.85
2018-06-04T06:50:49.433Z,37.96
2018-06-04T06:51:49.434Z,38.09
2018-06-04T06:52:49.459Z,38.2
2018-06-04T06:53:49.177Z,38.28
2018-06-04T06:54:49.500Z,38.38
2018-06-04T06:55:49.470Z,38.56
2018-06-04T06:56:49.512Z,38.6
2018-06-04T06:57:49.500Z,38.71
2018-06-04T06:58:49.279Z,38.72
2018-06-04T06:59:49.272Z,38.69
2018-06-04T07:00:49.545Z,38.79
2018-06-04T07:01:49.567Z,38.83
2018-06-04T07:02:49.358Z,38.87
2018-06-04T07:03:49.609Z,38.86
2018-06-04T07:04:49.620Z,38.88
2018-06-04T07:05:49.637Z,39.01
2018-06-04T07:06:49.620Z,38.96
2018-06-04T07:07:49.417Z,38.88
2018-06-04T07:08:49.673Z,38.83
2018-06-04T07:09:49.707Z,38.83
2018-06-04T07:10:49.441Z,38.83
2018-06-04T07:11:49.486Z,38.81
2018-06-04T07:12:49.492Z,38.79
2018-06-04T07:13:49.760Z,38.78
2018-06-04T07:14:49.748Z,38.75
2018-06-04T07:15:49.801Z,38.76
2018-06-04T07:16:49.792Z,38.66
2018-06-04T07:17:49.561Z,38.46
2018-06-04T07:18:49.843Z,38.37
2018-06-04T07:19:49.865Z,38.35
2018-06-04T07:20:49.839Z,38.15
2018-06-04T07:21:49.872Z,37.91
2018-06-04T07:22:49.871Z,37.72
2018-06-04T07:23:49.916Z,37.47
2018-06-04T07:24:49.921Z,37.37
2018-06-04T07:25:49.962Z,37.17
2018-06-04T07:26:50.199Z,37.13
2018-06-04T07:27:49.721Z,37.27
2018-06-04T07:28:49.960Z,37.29
2018-06-04T07:29:50.000Z,37.1
2018-06-04T07:30:49.996Z,37
2018-06-04T07:31:50.068Z,36.95
2018-06-04T07:32:50.049Z,36.78
2018-06-04T07:33:50.057Z,36.69
2018-06-04T07:34:50.266Z,36.2
2018-06-04T07:35:50.077Z,35.96
2018-06-04T07:36:50.119Z,35.71
2018-06-04T07:37:50.140Z,35.59
2018-06-04T07:38:49.906Z,35.58
2018-06-04T07:39:49.881Z,35.68
2018-06-04T07:40:49.925Z,35.85
2018-06-04T07:41:50.213Z,36.05
2018-06-04T07:42:49.934Z,36.22
2018-06-04T07:43:50.251Z,36.35
2018-06-04T07:44:49.960Z,36.66
2018-06-04T07:45:50.302Z,36.83
2018-06-04T07:46:50.264Z,37.03
2018-06-04T07:47:50.292Z,37.2
2018-06-04T07:48:50.047Z,37.2
2018-06-04T07:49:50.439Z,37.24
2018-06-04T07:50:50.306Z,37.28
2018-06-04T07:51:50.309Z,37.22
2018-06-04T07:52:50.380Z,37.27
2018-06-04T07:53:50.094Z,37.28
2018-06-04T07:54:50.412Z,37.4
2018-06-04T07:55:50.374Z,37.41
2018-06-04T07:56:50.149Z,37.49
2018-06-04T07:57:50.140Z,37.62
2018-06-04T07:58:50.462Z,37.63
2018-06-04T07:59:50.176Z,37.57
2018-06-04T08:00:50.804Z,37.32
2018-06-04T08:01:50.216Z,36.69
2018-06-04T08:02:50.578Z,36.27
2018-06-04T08:03:50.240Z,35.93
2018-06-04T08:04:50.517Z,35.97
2018-06-04T08:05:50.022Z,36.07
2018-06-04T08:06:50.578Z,35.85
2018-06-04T08:07:50.298Z,35.59
2018-06-04T08:08:50.626Z,35.34
2018-06-04T08:09:50.616Z,35.38
2018-06-04T08:10:50.363Z,35.41
2018-06-04T08:11:50.352Z,35.45
2018-06-04T08:12:50.642Z,35.6
2018-06-04T08:13:50.636Z,35.59
2018-06-04T08:14:50.420Z,35.58
2018-06-04T08:15:50.407Z,35.62
2018-06-04T08:16:50.458Z,35.55
2018-06-04T08:17:50.711Z,35.52
2018-06-04T08:18:50.739Z,35.52
2018-06-04T08:19:50.720Z,35.58
2018-06-04T08:20:50.740Z,35.7
2018-06-04T08:21:50.501Z,35.89
2018-06-04T08:22:50.799Z,36.08
2018-06-04T08:23:50.945Z,36.15
2018-06-04T08:24:50.807Z,36.22
2018-06-04T08:25:50.818Z,36.43
2018-06-04T08:26:50.820Z,36.56
2018-06-04T08:27:50.852Z,36.65
2018-06-04T08:28:50.849Z,36.76
2018-06-04T08:29:50.876Z,36.87
2018-06-04T08:30:50.613Z,36.87
2018-06-04T08:31:50.916Z,36.68
2018-06-04T08:32:50.891Z,36.34
2018-06-04T08:33:50.928Z,36.23
2018-06-04T08:34:50.984Z,36.01
2018-06-04T08:35:50.678Z,36
2018-06-04T08:36:50.983Z,35.84
2018-06-04T08:37:51.009Z,35.72
2018-06-04T08:38:51.008Z,35.63
2018-06-04T08:39:51.050Z,35.56
2018-06-04T08:40:50.501Z,35.5
2018-06-04T08:41:51.024Z,35.43
2018-06-04T08:42:51.051Z,35.38
2018-06-04T08:43:51.077Z,35.29
2018-06-04T08:44:51.046Z,35.31
2018-06-04T08:45:50.894Z,35.34
2018-06-04T08:46:51.082Z,35.31
2018-06-04T08:47:51.192Z,35.23
2018-06-04T08:48:51.127Z,35.1
2018-06-04T08:49:51.142Z,34.91
2018-06-04T08:50:51.167Z,34.81
2018-06-04T08:51:51.201Z,34.72
2018-06-04T08:52:51.188Z,34.52
2018-06-04T08:53:50.956Z,34.35
2018-06-04T08:54:50.931Z,34.25
2018-06-04T08:55:51.217Z,34.03
2018-06-04T08:56:51.248Z,33.95
2018-06-04T08:57:50.979Z,33.81
2018-06-04T08:58:50.976Z,33.75
2018-06-04T08:59:51.815Z,33.72
2018-06-04T09:00:51.271Z,33.68
2018-06-04T09:01:51.410Z,33.73
2018-06-04T09:02:51.351Z,33.69
2018-06-04T09:03:51.323Z,33.71
2018-06-04T09:04:51.286Z,33.76
2018-06-04T09:05:51.316Z,33.69
2018-06-04T09:06:51.508Z,33.63
2018-06-04T09:07:51.573Z,33.61
2018-06-04T09:08:51.365Z,33.61
2018-06-04T09:09:51.662Z,33.69
2018-06-04T09:10:51.348Z,33.68
2018-06-04T09:11:51.379Z,33.61
2018-06-04T09:12:51.409Z,33.28
2018-06-04T09:13:51.440Z,32.84
2018-06-04T09:14:51.451Z,32.48
2018-06-04T09:15:51.588Z,32.03
2018-06-04T09:16:51.493Z,31.81
2018-06-04T09:17:51.178Z,31.65
2018-06-04T09:18:51.462Z,31.54
2018-06-04T09:19:51.454Z,31.32
2018-06-04T09:20:51.513Z,31.28
2018-06-04T09:21:51.566Z,31.19
2018-06-04T09:22:51.511Z,31.23
2018-06-04T09:23:51.482Z,31.16
2018-06-04T09:24:51.518Z,30.97
2018-06-04T09:25:51.512Z,30.77
2018-06-04T09:26:51.506Z,30.79
2018-06-04T09:27:51.250Z,30.6
2018-06-04T09:28:51.296Z,30.61
2018-06-04T09:29:51.578Z,30.62
2018-06-04T09:30:51.589Z,30.58
2018-06-04T09:31:51.572Z,30.76
2018-06-04T09:32:51.563Z,30.72
2018-06-04T09:33:51.585Z,30.69
2018-06-04T09:34:51.649Z,30.76
2018-06-04T09:35:51.596Z,30.72
2018-06-04T09:36:51.643Z,30.73
2018-06-04T09:37:51.609Z,30.73
2018-06-04T09:38:51.613Z,30.72
2018-06-04T09:39:51.654Z,30.69
2018-06-04T09:40:51.682Z,30.8
2018-06-04T09:41:51.386Z,30.89
2018-06-04T09:42:51.604Z,30.97
2018-06-04T09:43:51.695Z,31.07
2018-06-04T09:44:51.389Z,31.1
2018-06-04T09:45:51.662Z,31.07
2018-06-04T09:46:51.674Z,31.16
2018-06-04T09:47:51.416Z,31.23
2018-06-04T09:48:51.673Z,31.34
2018-06-04T09:49:51.705Z,31.38
2018-06-04T09:50:51.749Z,31.48
2018-06-04T09:51:51.447Z,31.54
2018-06-04T09:52:51.933Z,31.56
2018-06-04T09:53:51.891Z,31.65
2018-06-04T09:54:51.694Z,31.84
2018-06-04T09:55:51.467Z,31.89
2018-06-04T09:56:51.734Z,31.93
2018-06-04T09:57:51.734Z,31.99
2018-06-04T09:58:51.458Z,31.93
2018-06-04T09:59:51.467Z,31.75
2018-06-04T10:00:51.851Z,31.68
2018-06-04T10:01:51.755Z,31.32
2018-06-04T10:02:51.816Z,30.99
2018-06-04T10:03:51.756Z,30.75
2018-06-04T10:04:51.613Z,30.46
2018-06-04T10:05:51.773Z,30.42
2018-06-04T10:06:51.814Z,30.47
2018-06-04T10:07:51.778Z,30.46
2018-06-04T10:08:51.839Z,30.49
2018-06-04T10:09:51.812Z,30.55
2018-06-04T10:10:51.853Z,30.43
2018-06-04T10:11:51.569Z,30.22
2018-06-04T10:12:51.834Z,30.04
2018-06-04T10:13:52.163Z,29.89
2018-06-04T10:14:51.925Z,29.8
2018-06-04T10:15:51.843Z,29.68
2018-06-04T10:16:51.882Z,29.55
2018-06-04T10:17:51.867Z,29.27
2018-06-04T10:18:51.644Z,29.09
2018-06-04T10:19:51.863Z,28.9
2018-06-04T10:20:51.660Z,28.89
2018-06-04T10:21:51.631Z,28.93
2018-06-04T10:22:51.939Z,28.92
2018-06-04T10:23:51.887Z,28.95
2018-06-04T10:24:51.924Z,28.89
2018-06-04T10:25:51.928Z,28.9
2018-06-04T10:26:51.689Z,28.93
2018-06-04T10:27:51.981Z,28.93
2018-06-04T10:28:51.957Z,28.89
2018-06-04T10:29:51.984Z,28.93
2018-06-04T10:30:51.973Z,28.92
2018-06-04T10:31:51.708Z,28.88
2018-06-04T10:32:51.693Z,28.85
2018-06-04T10:33:51.703Z,28.88
2018-06-04T10:34:51.949Z,28.92
2018-06-04T10:35:51.726Z,28.9
2018-06-04T10:36:51.968Z,29
2018-06-04T10:37:52.007Z,29.09
2018-06-04T10:38:51.982Z,29.23
2018-06-04T10:39:52.038Z,29.36
2018-06-04T10:40:52.005Z,29.49
2018-06-04T10:41:51.761Z,29.65
2018-06-04T10:42:52.093Z,29.65
2018-06-04T10:43:51.998Z,29.78
2018-06-04T10:44:52.012Z,29.73
2018-06-04T10:45:52.069Z,29.85
2018-06-04T10:46:52.097Z,29.85
2018-06-04T10:47:52.070Z,29.94
2018-06-04T10:48:52.038Z,30.13
2018-06-04T10:49:52.054Z,30.16
2018-06-04T10:50:51.796Z,30.27
2018-06-04T10:51:52.103Z,30.42
2018-06-04T10:52:51.809Z,30.53
2018-06-04T10:53:51.832Z,30.64
2018-06-04T10:54:52.063Z,30.75
2018-06-04T10:55:52.107Z,30.88
2018-06-04T10:56:52.078Z,30.88
2018-06-04T10:57:51.865Z,30.89
2018-06-04T10:58:51.825Z,30.97
2018-06-04T10:59:52.128Z,31.04
2018-06-04T11:00:52.124Z,31.1
2018-06-04T11:01:51.884Z,30.98
2018-06-04T11:02:52.114Z,30.99
2018-06-04T11:03:52.104Z,31.02
2018-06-04T11:04:52.020Z,31.19
2018-06-04T11:05:51.896Z,31.19
2018-06-04T11:06:52.130Z,31.29
2018-06-04T11:07:52.175Z,31.38
2018-06-04T11:08:53.564Z,31.41
2018-06-04T11:09:51.934Z,31.54
2018-06-04T11:10:51.900Z,31.65
2018-06-04T11:11:52.191Z,31.66
2018-06-04T11:12:52.164Z,31.66
2018-06-04T11:13:52.202Z,31.78
2018-06-04T11:14:52.192Z,31.72
2018-06-04T11:15:52.233Z,31.69
2018-06-04T11:16:51.971Z,31.65
2018-06-04T11:17:52.224Z,31.62
2018-06-04T11:18:52.325Z,31.5
2018-06-04T11:19:51.983Z,31.48
2018-06-04T11:20:52.221Z,31.43
2018-06-04T11:21:52.237Z,31.36
2018-06-04T11:22:52.233Z,31.38
2018-06-04T11:23:52.470Z,31.32
2018-06-04T11:24:52.249Z,31.21
2018-06-04T11:25:52.289Z,31.19
2018-06-04T11:26:52.267Z,31.17
2018-06-04T11:27:52.316Z,31.2
2018-06-04T11:28:52.287Z,31.21
2018-06-04T11:29:52.521Z,31.21
2018-06-04T11:30:52.275Z,31.09
2018-06-04T11:31:52.329Z,31.1
2018-06-04T11:32:52.054Z,31.04
2018-06-04T11:33:52.342Z,31.17
2018-06-04T11:34:52.077Z,31.17
2018-06-04T11:35:52.398Z,31.25
2018-06-04T11:36:52.334Z,31.14
2018-06-04T11:37:52.089Z,31.2
2018-06-04T11:38:52.345Z,31.06
2018-06-04T11:39:52.377Z,30.91
2018-06-04T11:40:52.385Z,30.89
2018-06-04T11:41:52.384Z,30.76
2018-06-04T11:42:52.397Z,30.72
2018-06-04T11:43:52.484Z,30.72
2018-06-04T11:44:52.114Z,30.58
2018-06-04T11:45:52.408Z,30.61
2018-06-04T11:46:52.382Z,30.57
2018-06-04T11:47:52.434Z,30.67
2018-06-04T11:48:52.424Z,30.6
2018-06-04T11:49:52.437Z,30.62
2018-06-04T11:50:52.408Z,30.49
2018-06-04T11:51:52.413Z,30.53
2018-06-04T11:52:52.450Z,30.42
2018-06-04T11:53:52.198Z,30.49
2018-06-04T11:54:52.462Z,30.24
2018-06-04T11:55:52.437Z,30.19
2018-06-04T11:56:52.631Z,30.34
2018-06-04T11:57:52.468Z,30.32
2018-06-04T11:58:52.513Z,30.39
2018-06-04T11:59:52.497Z,30.45
2018-06-04T12:00:52.237Z,30.32
2018-06-04T12:01:52.497Z,30.47
2018-06-04T12:02:52.225Z,30.54
2018-06-04T12:03:52.519Z,30.45
2018-06-04T12:04:52.537Z,30.37
2018-06-04T12:05:52.596Z,30.24
2018-06-04T12:06:52.497Z,30.11
2018-06-04T12:07:52.520Z,30.02
2018-06-04T12:08:52.556Z,29.83
2018-06-04T12:09:52.561Z,29.78
2018-06-04T12:10:52.300Z,29.82
2018-06-04T12:11:52.356Z,29.83
2018-06-04T12:12:52.556Z,30.04
2018-06-04T12:13:52.287Z,30.01
2018-06-04T12:14:52.595Z,30.17
2018-06-04T12:15:52.329Z,30.29
2018-06-04T12:16:52.349Z,30.35
2018-06-04T12:17:52.338Z,30.46
2018-06-04T12:18:52.607Z,30.46
2018-06-04T12:19:52.574Z,30.49
2018-06-04T12:20:52.080Z,30.51
2018-06-04T12:21:52.605Z,30.57
2018-06-04T12:22:52.414Z,30.64
2018-06-04T12:23:52.358Z,30.67
2018-06-04T12:24:52.644Z,30.72
2018-06-04T12:25:52.660Z,30.72
2018-06-04T12:26:52.866Z,30.82
2018-06-04T12:27:52.646Z,30.89
2018-06-04T12:28:52.670Z,30.83
2018-06-04T12:29:52.628Z,30.92
2018-06-04T12:30:52.425Z,30.99
2018-06-04T12:31:52.412Z,31.01
2018-06-04T12:32:52.433Z,31.04
2018-06-04T12:33:52.417Z,31.02
2018-06-04T12:34:52.724Z,30.82
2018-06-04T12:35:52.721Z,30.64
2018-06-04T12:36:52.679Z,30.51
2018-06-04T12:37:52.462Z,30.37
2018-06-04T12:38:52.469Z,30.1
2018-06-04T12:39:52.468Z,29.9
2018-06-04T12:40:52.473Z,29.94
2018-06-04T12:41:52.505Z,29.83
2018-06-04T12:42:52.714Z,29.71
2018-06-04T12:43:52.490Z,29.67
2018-06-04T12:44:52.739Z,29.6
2018-06-04T12:45:52.504Z,29.71
2018-06-04T12:46:52.728Z,29.74
2018-06-04T12:47:52.585Z,29.58
2018-06-04T12:48:52.821Z,29.49
2018-06-04T12:49:52.508Z,29.52
2018-06-04T12:50:52.549Z,29.46
2018-06-04T12:51:52.775Z,29.49
2018-06-04T12:52:52.775Z,29.39
2018-06-04T12:53:52.540Z,29.34
2018-06-04T12:54:52.571Z,29.33
2018-06-04T12:55:52.581Z,29.19
2018-06-04T12:56:52.554Z,29.09
2018-06-04T12:57:52.623Z,29.16
2018-06-04T12:58:52.617Z,29.15